Time;durP1;ratioP1;P1;durP2;ratioP2;P2;SDS_P1;SDS_P2;PMS_P1;PMS_P2;Temp;Humidity;BMP_temperature;BMP_pressure;BME280_temperature;BME280_humidity;BME280_pressure;Samples;Min_cycle;Max_cycle;Signal;HPM_P1;HPM_P2
2021/08/18 00:01:40;;;;;;;8.63;7.15;;;;;;;;;;5001373;28;20197;-69
2021/08/18 00:04:06;;;;;;;9.65;7.22;;;;;;;;;;5004910;28;20197;-69
2021/08/18 00:06:32;;;;;;;9.10;6.97;;;;;;;;;;4993851;28;20187;-69
2021/08/18 00:08:58;;;;;;;11.48;7.65;;;;;;;;;;5003550;28;20194;-69
2021/08/18 00:11:23;;;;;;;8.43;6.97;;;;;;;;;;4994904;28;20198;-69
2021/08/18 00:13:48;;;;;;;8.85;7.05;;;;;;;;;;5003001;28;20197;-70
2021/08/18 00:16:15;;;;;;;10.05;7.10;;;;;;;;;;4995992;28;20250;-69
2021/08/18 00:18:40;;;;;;;10.05;6.93;;;;;;;;;;5007594;28;20194;-69
2021/08/18 00:21:05;;;;;;;16.30;8.45;;;;;;;;;;4994405;28;20526;-69
2021/08/18 00:23:31;;;;;;;10.40;7.80;;;;;;;;;;5001072;28;20628;-69
2021/08/18 00:25:56;;;;;;;9.02;8.13;;;;;;;;;;4993573;28;20292;-70
2021/08/18 00:28:22;;;;;;;12.93;8.68;;;;;;;;;;5006143;28;20187;-69
2021/08/18 00:30:47;;;;;;;12.07;9.10;;;;;;;;;;5004845;28;20282;-69
2021/08/18 00:33:13;;;;;;;12.30;9.07;;;;;;;;;;4996853;28;20273;-69
2021/08/18 00:35:38;;;;;;;12.05;9.73;;;;;;;;;;5002064;28;20301;-69
2021/08/18 00:38:03;;;;;;;13.07;9.70;;;;;;;;;;4998920;28;20285;-70
2021/08/18 00:40:29;;;;;;;13.52;9.75;;;;;;;;;;5004386;28;20242;-69
2021/08/18 00:42:54;;;;;;;15.52;9.80;;;;;;;;;;4998814;28;20186;-69
2021/08/18 00:45:22;;;;;;;13.55;9.93;;;;;;;;;;5005142;28;20183;-69
2021/08/18 00:47:50;;;;;;;13.88;9.98;;;;;;;;;;4995323;28;20194;-69
2021/08/18 00:50:23;;;;;;;12.35;9.35;;;;;;;;;;5006664;28;20200;-69
2021/08/18 00:52:48;;;;;;;10.57;8.98;;;;;;;;;;4997763;28;20273;-69
2021/08/18 00:55:19;;;;;;;10.82;8.98;;;;;;;;;;5005253;28;20317;-69
2021/08/18 00:57:45;;;;;;;14.73;9.57;;;;;;;;;;4996174;28;20218;-69
2021/08/18 01:00:13;;;;;;;15.27;9.27;;;;;;;;;;5005490;28;20706;-69
2021/08/18 01:02:43;;;;;;;12.10;9.38;;;;;;;;;;4999204;28;20229;-69
2021/08/18 01:05:10;;;;;;;15.40;10.43;;;;;;;;;;5002994;28;20197;-69
2021/08/18 01:07:36;;;;;;;13.50;10.05;;;;;;;;;;5000193;28;20205;-69
2021/08/18 01:10:07;;;;;;;15.23;11.07;;;;;;;;;;4993693;28;20190;-69
2021/08/18 01:12:34;;;;;;;15.75;10.82;;;;;;;;;;5010665;28;20197;-69
2021/08/18 01:15:02;;;;;;;14.80;11.18;;;;;;;;;;4997021;28;20275;-69
2021/08/18 01:17:32;;;;;;;13.70;11.02;;;;;;;;;;5009624;28;20183;-69
2021/08/18 01:19:58;;;;;;;14.68;10.95;;;;;;;;;;5000736;28;20634;-69
2021/08/18 01:22:23;;;;;;;18.00;10.98;;;;;;;;;;5012363;28;20630;-69
2021/08/18 01:24:49;;;;;;;12.13;10.15;;;;;;;;;;4998480;28;20190;-69
2021/08/18 01:27:14;;;;;;;14.48;10.90;;;;;;;;;;5008974;28;20186;-69
2021/08/18 01:29:40;;;;;;;15.32;10.82;;;;;;;;;;4997301;28;20553;-69
2021/08/18 01:32:06;;;;;;;14.60;11.48;;;;;;;;;;5008773;28;20183;-69
2021/08/18 01:34:31;;;;;;;14.23;11.85;;;;;;;;;;4997217;28;20878;-69
2021/08/18 01:36:56;;;;;;;13.52;10.80;;;;;;;;;;5004545;28;20175;-69
2021/08/18 01:39:22;;;;;;;16.10;11.43;;;;;;;;;;5007922;28;20225;-69
2021/08/18 01:41:47;;;;;;;15.48;11.70;;;;;;;;;;4998247;28;20195;-69
2021/08/18 01:44:13;;;;;;;17.17;11.85;;;;;;;;;;5006806;28;20202;-69
2021/08/18 01:46:38;;;;;;;16.00;12.55;;;;;;;;;;5002456;28;20197;-69
2021/08/18 01:49:03;;;;;;;19.58;12.88;;;;;;;;;;5006236;28;20274;-69
2021/08/18 01:51:29;;;;;;;18.50;12.70;;;;;;;;;;5001061;28;20229;-69
2021/08/18 01:53:54;;;;;;;18.10;13.77;;;;;;;;;;5006619;28;20195;-69
2021/08/18 01:56:20;;;;;;;16.88;12.63;;;;;;;;;;5002878;28;20223;-69
2021/08/18 01:58:48;;;;;;;15.07;12.50;;;;;;;;;;5007752;28;20769;-69
2021/08/18 02:01:15;;;;;;;17.95;12.13;;;;;;;;;;5003481;28;20183;-69
2021/08/18 02:03:40;;;;;;;15.30;12.15;;;;;;;;;;5006293;28;20285;-69
2021/08/18 02:06:06;;;;;;;16.70;11.95;;;;;;;;;;5003641;28;20262;-69
2021/08/18 02:08:31;;;;;;;17.42;12.77;;;;;;;;;;5007454;28;20222;-70
2021/08/18 02:10:57;;;;;;;21.70;13.57;;;;;;;;;;5009887;28;20238;-70
2021/08/18 02:13:23;;;;;;;18.52;12.88;;;;;;;;;;4998074;28;20191;-69
2021/08/18 02:15:48;;;;;;;17.58;12.70;;;;;;;;;;5013293;28;20202;-70
2021/08/18 02:18:15;;;;;;;14.82;11.90;;;;;;;;;;5000040;28;20201;-70
2021/08/18 02:20:42;;;;;;;15.38;10.80;;;;;;;;;;5007945;28;20209;-70
2021/08/18 02:23:07;;;;;;;15.40;11.15;;;;;;;;;;4998651;28;20179;-71
2021/08/18 02:25:35;;;;;;;12.75;8.75;;;;;;;;;;5011670;28;20182;-71
2021/08/18 02:28:00;;;;;;;14.73;9.73;;;;;;;;;;4996800;28;20194;-71
2021/08/18 02:30:27;;;;;;;13.70;10.73;;;;;;;;;;5005692;28;20610;-71
2021/08/18 02:32:54;;;;;;;18.27;9.77;;;;;;;;;;4997923;28;20192;-71
2021/08/18 02:35:20;;;;;;;14.77;7.78;;;;;;;;;;5005495;28;20281;-71
2021/08/18 02:37:46;;;;;;;10.98;7.00;;;;;;;;;;4997895;28;20224;-72
2021/08/18 02:40:12;;;;;;;9.90;6.63;;;;;;;;;;5002694;28;20274;-71
2021/08/18 02:42:38;;;;;;;9.25;5.38;;;;;;;;;;5003567;28;20242;-71
2021/08/18 02:45:06;;;;;;;8.45;5.15;;;;;;;;;;4999545;28;20179;-71
2021/08/18 02:47:31;;;;;;;9.68;5.30;;;;;;;;;;5005153;28;20360;-72
2021/08/18 02:49:57;;;;;;;7.43;5.13;;;;;;;;;;5000808;28;20191;-70
2021/08/18 02:52:22;;;;;;;10.70;5.35;;;;;;;;;;5004229;28;20190;-71
2021/08/18 02:54:47;;;;;;;7.90;5.72;;;;;;;;;;4998068;28;20238;-71
2021/08/18 02:57:13;;;;;;;10.60;6.72;;;;;;;;;;5004801;28;20227;-71
2021/08/18 02:59:38;;;;;;;9.40;6.82;;;;;;;;;;5000507;28;20207;-70
2021/08/18 03:02:04;;;;;;;12.75;7.60;;;;;;;;;;5005288;28;20202;-72
2021/08/18 03:04:29;;;;;;;11.48;7.95;;;;;;;;;;4999319;28;20186;-72
2021/08/18 03:06:55;;;;;;;10.57;7.28;;;;;;;;;;5002900;28;20183;-72
2021/08/18 03:09:23;;;;;;;13.48;7.85;;;;;;;;;;4994731;28;20298;-71
2021/08/18 03:11:52;;;;;;;11.55;8.05;;;;;;;;;;4999998;28;20182;-71
2021/08/18 03:14:19;;;;;;;12.90;8.18;;;;;;;;;;5003182;28;20241;-71
2021/08/18 03:16:45;;;;;;;14.48;8.93;;;;;;;;;;4997393;28;20183;-71
2021/08/18 03:19:10;;;;;;;14.77;8.82;;;;;;;;;;5007002;28;20668;-71
2021/08/18 03:21:35;;;;;;;13.77;9.18;;;;;;;;;;4997872;28;20210;-72
2021/08/18 03:24:01;;;;;;;15.13;9.25;;;;;;;;;;5010104;28;20262;-72
2021/08/18 03:26:26;;;;;;;12.70;9.93;;;;;;;;;;4997732;28;21156;-71
2021/08/18 03:28:51;;;;;;;18.95;9.82;;;;;;;;;;5007573;28;20341;-72
2021/08/18 03:31:17;;;;;;;13.32;9.52;;;;;;;;;;4996631;28;20193;-72
2021/08/18 03:33:42;;;;;;;19.30;11.63;;;;;;;;;;5008293;28;20195;-71
2021/08/18 03:36:08;;;;;;;19.73;10.70;;;;;;;;;;4996865;28;20333;-71
2021/08/18 03:38:35;;;;;;;15.00;11.15;;;;;;;;;;5007466;28;20198;-71
2021/08/18 03:41:00;;;;;;;17.15;11.50;;;;;;;;;;4996439;28;20559;-72
2021/08/18 03:43:25;;;;;;;18.67;12.23;;;;;;;;;;5006490;28;20706;-72
2021/08/18 03:45:51;;;;;;;17.77;11.93;;;;;;;;;;5005779;28;20217;-71
2021/08/18 03:48:16;;;;;;;21.02;12.68;;;;;;;;;;4998486;28;20248;-71
2021/08/18 03:50:42;;;;;;;18.98;12.20;;;;;;;;;;5004611;28;20531;-71
2021/08/18 03:53:07;;;;;;;15.90;11.75;;;;;;;;;;4996427;28;20520;-71
2021/08/18 03:55:32;;;;;;;23.20;12.68;;;;;;;;;;5007129;28;20626;-72
2021/08/18 03:57:58;;;;;;;22.55;13.18;;;;;;;;;;5000084;28;20261;-71
2021/08/18 04:00:23;;;;;;;19.75;11.80;;;;;;;;;;5001261;28;20195;-72
2021/08/18 04:02:48;;;;;;;23.42;11.93;;;;;;;;;;4997837;28;20257;-72
2021/08/18 04:05:14;;;;;;;19.30;13.25;;;;;;;;;;5005032;28;20237;-71
2021/08/18 04:07:40;;;;;;;19.30;11.70;;;;;;;;;;4996034;28;20192;-71
2021/08/18 04:10:06;;;;;;;17.02;11.65;;;;;;;;;;5002120;28;20186;-71
2021/08/18 04:12:55;;;;;;;20.88;12.18;;;;;;;;;;4996457;28;20669;-71
2021/08/18 04:15:23;;;;;;;16.25;10.43;;;;;;;;;;5004115;28;20265;-71
2021/08/18 04:17:48;;;;;;;17.73;10.52;;;;;;;;;;4994364;28;20217;-71
2021/08/18 04:20:14;;;;;;;20.40;10.90;;;;;;;;;;5004880;28;20269;-71
2021/08/18 04:22:40;;;;;;;16.92;11.02;;;;;;;;;;5001422;28;20199;-72
2021/08/18 04:25:10;;;;;;;17.05;9.95;;;;;;;;;;5012163;28;20272;-72
2021/08/18 04:27:36;;;;;;;16.70;10.65;;;;;;;;;;5004340;28;20190;-71
2021/08/18 04:30:02;;;;;;;14.73;9.10;;;;;;;;;;4993796;28;20191;-73
2021/08/18 04:32:27;;;;;;;14.82;9.55;;;;;;;;;;5003739;28;20194;-74
2021/08/18 04:34:53;;;;;;;15.68;10.18;;;;;;;;;;4994782;28;20215;-71
2021/08/18 04:37:18;;;;;;;17.45;10.90;;;;;;;;;;5003570;28;20587;-72
2021/08/18 04:39:43;;;;;;;15.68;10.13;;;;;;;;;;4998567;28;20187;-71
2021/08/18 04:42:09;;;;;;;20.30;10.75;;;;;;;;;;5002069;28;20196;-71
2021/08/18 04:44:34;;;;;;;17.70;10.50;;;;;;;;;;4996116;28;20191;-71
2021/08/18 04:46:59;;;;;;;18.20;10.55;;;;;;;;;;5004905;28;20607;-71
2021/08/18 04:49:24;;;;;;;14.35;10.30;;;;;;;;;;4994528;28;20186;-71
2021/08/18 04:51:50;;;;;;;14.35;10.63;;;;;;;;;;5003951;28;20196;-71
2021/08/18 04:54:15;;;;;;;16.67;10.30;;;;;;;;;;5002687;28;20187;-71
2021/08/18 04:56:40;;;;;;;19.65;11.63;;;;;;;;;;4998320;28;20298;-72
2021/08/18 04:59:06;;;;;;;14.88;11.02;;;;;;;;;;5005117;28;20703;-72
2021/08/18 05:01:31;;;;;;;18.85;11.68;;;;;;;;;;4996493;28;20213;-71
2021/08/18 05:03:56;;;;;;;14.60;10.75;;;;;;;;;;5002466;28;20187;-71
2021/08/18 05:06:22;;;;;;;16.48;10.68;;;;;;;;;;4997366;28;20195;-71
2021/08/18 05:08:47;;;;;;;18.90;11.15;;;;;;;;;;5004962;28;20638;-71
2021/08/18 05:11:12;;;;;;;16.05;11.40;;;;;;;;;;4996869;28;20190;-71
2021/08/18 05:13:38;;;;;;;18.48;10.85;;;;;;;;;;5001363;28;20190;-72
2021/08/18 05:16:03;;;;;;;19.35;10.45;;;;;;;;;;4995921;28;20285;-71
2021/08/18 05:18:29;;;;;;;16.10;10.73;;;;;;;;;;5000854;28;20195;-71
2021/08/18 05:20:54;;;;;;;16.15;10.02;;;;;;;;;;4995336;28;20190;-72
2021/08/18 05:23:20;;;;;;;16.52;10.38;;;;;;;;;;5003662;28;21299;-71
2021/08/18 05:25:46;;;;;;;16.75;10.32;;;;;;;;;;5003367;28;20628;-71
2021/08/18 05:28:13;;;;;;;17.08;10.60;;;;;;;;;;4997669;28;20281;-71
2021/08/18 05:30:39;;;;;;;17.17;10.13;;;;;;;;;;5002887;28;20214;-71
2021/08/18 05:33:04;;;;;;;19.40;10.45;;;;;;;;;;4995346;28;20229;-71
2021/08/18 05:35:30;;;;;;;21.08;9.95;;;;;;;;;;5003474;28;20234;-71
2021/08/18 05:37:55;;;;;;;15.27;9.80;;;;;;;;;;4994520;28;20198;-71
2021/08/18 05:40:21;;;;;;;20.13;10.18;;;;;;;;;;5003779;28;20243;-71
2021/08/18 05:42:46;;;;;;;15.68;9.60;;;;;;;;;;4997011;28;20646;-70
2021/08/18 05:45:12;;;;;;;14.43;9.02;;;;;;;;;;5004210;28;20182;-71
2021/08/18 05:47:37;;;;;;;15.82;8.93;;;;;;;;;;4997129;28;20479;-71
2021/08/18 05:50:03;;;;;;;15.35;9.10;;;;;;;;;;5001967;28;20619;-71
2021/08/18 05:52:28;;;;;;;15.23;9.18;;;;;;;;;;5001182;28;20638;-71
2021/08/18 05:54:54;;;;;;;19.92;9.00;;;;;;;;;;5006332;28;20265;-71
2021/08/18 05:57:19;;;;;;;13.35;8.60;;;;;;;;;;5006576;28;20186;-71
2021/08/18 05:59:44;;;;;;;16.10;8.98;;;;;;;;;;4998895;28;20207;-71
2021/08/18 06:02:10;;;;;;;16.08;8.20;;;;;;;;;;5006363;28;20214;-71
2021/08/18 06:04:35;;;;;;;13.63;7.70;;;;;;;;;;4999703;28;20190;-72
2021/08/18 06:07:00;;;;;;;10.88;7.05;;;;;;;;;;5008411;28;20194;-71
2021/08/18 06:09:26;;;;;;;16.88;7.82;;;;;;;;;;4998288;28;20676;-70
2021/08/18 06:11:51;;;;;;;13.85;7.80;;;;;;;;;;5011518;28;20258;-71
2021/08/18 06:14:16;;;;;;;10.15;6.60;;;;;;;;;;4998899;28;20297;-71
2021/08/18 06:16:42;;;;;;;13.57;6.80;;;;;;;;;;5009826;28;20205;-70
2021/08/18 06:19:08;;;;;;;13.40;6.95;;;;;;;;;;5000533;28;20282;-71
2021/08/18 06:21:33;;;;;;;11.90;7.15;;;;;;;;;;5010113;28;20266;-71
2021/08/18 06:24:08;;;;;;;16.38;6.30;;;;;;;;;;5006380;28;20191;-70
2021/08/18 06:26:34;;;;;;;10.80;6.45;;;;;;;;;;5009895;28;20217;-71
2021/08/18 06:28:59;;;;;;;14.38;6.30;;;;;;;;;;5012797;28;20183;-70
2021/08/18 06:31:25;;;;;;;13.90;5.70;;;;;;;;;;5009023;28;20278;-70
2021/08/18 06:33:50;;;;;;;15.20;6.20;;;;;;;;;;5010597;28;20516;-71
2021/08/18 06:36:16;;;;;;;15.43;6.28;;;;;;;;;;5006751;28;20202;-71
2021/08/18 06:38:41;;;;;;;11.75;5.15;;;;;;;;;;5011272;28;20199;-71
2021/08/18 06:41:06;;;;;;;11.65;5.75;;;;;;;;;;4999424;28;20191;-71
2021/08/18 06:43:32;;;;;;;9.25;5.25;;;;;;;;;;5011450;28;20585;-71
2021/08/18 06:45:57;;;;;;;9.05;5.55;;;;;;;;;;5008026;28;20632;-71
2021/08/18 06:48:22;;;;;;;11.93;5.93;;;;;;;;;;5008298;28;20232;-71
2021/08/18 06:50:48;;;;;;;12.57;6.55;;;;;;;;;;5006330;28;20182;-71
2021/08/18 06:53:13;;;;;;;14.77;6.78;;;;;;;;;;5011692;28;20183;-71
2021/08/18 06:55:38;;;;;;;13.05;6.05;;;;;;;;;;4998085;28;20226;-71
2021/08/18 06:58:04;;;;;;;12.63;5.03;;;;;;;;;;5005761;28;20244;-71
2021/08/18 07:00:29;;;;;;;11.35;5.65;;;;;;;;;;5012819;28;20555;-70
2021/08/18 07:02:54;;;;;;;11.70;5.85;;;;;;;;;;4998735;28;20190;-70
2021/08/18 07:05:20;;;;;;;9.05;5.57;;;;;;;;;;5009950;28;20207;-71
2021/08/18 07:07:46;;;;;;;9.20;5.20;;;;;;;;;;4995931;28;20204;-70
2021/08/18 07:10:13;;;;;;;11.80;5.25;;;;;;;;;;5010618;28;20220;-71
2021/08/18 07:12:39;;;;;;;9.35;5.15;;;;;;;;;;5004026;28;20581;-71
2021/08/18 07:15:06;;;;;;;9.13;5.85;;;;;;;;;;5012737;28;20210;-70
2021/08/18 07:17:31;;;;;;;10.30;5.35;;;;;;;;;;4996413;28;20583;-70
2021/08/18 07:19:56;;;;;;;12.38;5.60;;;;;;;;;;5008469;28;20247;-70
2021/08/18 07:22:22;;;;;;;13.13;5.45;;;;;;;;;;4999876;28;20277;-69
2021/08/18 07:24:47;;;;;;;9.77;5.30;;;;;;;;;;5017176;28;20198;-72
2021/08/18 07:27:12;;;;;;;14.27;5.60;;;;;;;;;;5000623;28;20196;-71
2021/08/18 07:29:38;;;;;;;12.23;5.25;;;;;;;;;;5017750;28;20190;-71
2021/08/18 07:32:03;;;;;;;10.68;5.72;;;;;;;;;;5011213;28;20201;-71
2021/08/18 07:34:29;;;;;;;11.88;5.57;;;;;;;;;;5002943;28;20200;-71
2021/08/18 07:36:54;;;;;;;7.97;6.28;;;;;;;;;;5010951;28;20260;-72
2021/08/18 07:39:19;;;;;;;12.00;5.85;;;;;;;;;;5000164;28;20639;-71
2021/08/18 07:41:45;;;;;;;10.57;5.93;;;;;;;;;;5007054;28;20225;-71
2021/08/18 07:44:10;;;;;;;11.00;6.28;;;;;;;;;;5001106;28;20196;-72
2021/08/18 07:46:35;;;;;;;11.45;5.88;;;;;;;;;;5005112;28;20337;-73
2021/08/18 07:49:01;;;;;;;12.10;5.43;;;;;;;;;;5001730;28;20840;-71
2021/08/18 07:51:26;;;;;;;13.23;6.40;;;;;;;;;;5005312;28;20501;-73
2021/08/18 07:53:52;;;;;;;12.25;6.78;;;;;;;;;;5006516;28;20236;-71
2021/08/18 07:56:17;;;;;;;15.13;6.65;;;;;;;;;;5003244;28;20226;-72
2021/08/18 07:58:42;;;;;;;11.00;5.70;;;;;;;;;;5003596;28;20299;-72
2021/08/18 08:01:08;;;;;;;10.73;5.95;;;;;;;;;;5005856;28;20186;-72
2021/08/18 08:03:33;;;;;;;8.88;5.07;;;;;;;;;;5009006;28;20208;-72
2021/08/18 08:05:59;;;;;;;11.20;6.20;;;;;;;;;;4998085;28;20194;-72
2021/08/18 08:08:24;;;;;;;6.60;5.78;;;;;;;;;;5010637;28;20191;-72
2021/08/18 08:10:50;;;;;;;9.63;4.82;;;;;;;;;;4999804;28;20187;-75
2021/08/18 08:13:15;;;;;;;7.53;5.40;;;;;;;;;;5011851;28;20578;-72
2021/08/18 08:15:40;;;;;;;8.55;5.07;;;;;;;;;;4995876;28;20206;-74
2021/08/18 08:18:06;;;;;;;9.50;5.30;;;;;;;;;;5013339;28;20504;-72
2021/08/18 08:20:31;;;;;;;9.85;5.72;;;;;;;;;;4995927;28;20190;-72
2021/08/18 08:22:57;;;;;;;8.63;4.57;;;;;;;;;;5014825;28;20182;-72
2021/08/18 08:25:23;;;;;;;7.38;4.90;;;;;;;;;;4998304;28;20672;-72
2021/08/18 08:27:48;;;;;;;7.35;4.82;;;;;;;;;;5016044;28;20573;-72
2021/08/18 08:30:14;;;;;;;7.13;4.75;;;;;;;;;;4998964;28;20709;-72
2021/08/18 08:32:39;;;;;;;6.22;3.80;;;;;;;;;;5013122;28;20216;-73
2021/08/18 08:35:09;;;;;;;6.65;4.05;;;;;;;;;;5007822;28;20218;-72
2021/08/18 08:37:35;;;;;;;6.80;4.20;;;;;;;;;;5008337;28;20290;-74
2021/08/18 08:40:00;;;;;;;9.40;4.18;;;;;;;;;;5006388;28;20272;-72
2021/08/18 08:42:27;;;;;;;6.78;4.32;;;;;;;;;;5005729;28;20182;-72
2021/08/18 08:44:53;;;;;;;7.50;4.15;;;;;;;;;;5007853;28;20198;-72
2021/08/18 08:47:18;;;;;;;8.00;3.67;;;;;;;;;;5001530;28;20224;-72
2021/08/18 08:49:44;;;;;;;7.72;4.03;;;;;;;;;;5006882;28;20232;-72
2021/08/18 08:52:12;;;;;;;7.35;3.60;;;;;;;;;;5006506;28;20189;-72
2021/08/18 08:54:39;;;;;;;5.82;4.03;;;;;;;;;;5001932;28;20215;-73
2021/08/18 08:57:05;;;;;;;5.35;4.07;;;;;;;;;;5003424;28;20649;-74
2021/08/18 08:59:31;;;;;;;10.13;3.33;;;;;;;;;;5005350;28;20214;-73
2021/08/18 09:02:09;;;;;;;7.07;3.85;;;;;;;;;;5009211;28;20272;-72
2021/08/18 09:04:40;;;;;;;11.85;4.03;;;;;;;;;;5007757;28;20658;-72
2021/08/18 09:07:11;;;;;;;11.48;4.25;;;;;;;;;;5004517;28;20194;-72
2021/08/18 09:09:39;;;;;;;8.82;4.20;;;;;;;;;;5011135;28;20185;-72
2021/08/18 09:12:10;;;;;;;9.55;4.15;;;;;;;;;;5002069;28;20658;-73
2021/08/18 09:14:36;;;;;;;6.78;3.67;;;;;;;;;;5000954;28;20642;-73
2021/08/18 09:17:02;;;;;;;4.95;3.00;;;;;;;;;;5014849;28;20262;-72
2021/08/18 09:19:31;;;;;;;7.03;3.17;;;;;;;;;;4998040;28;20268;-72
2021/08/18 09:22:05;;;;;;;6.60;3.65;;;;;;;;;;5005199;28;20282;-73
2021/08/18 09:24:31;;;;;;;7.78;3.00;;;;;;;;;;5002396;28;20200;-72
2021/08/18 09:27:07;;;;;;;6.45;2.67;;;;;;;;;;5009493;28;20195;-73
2021/08/18 09:29:42;;;;;;;5.72;3.17;;;;;;;;;;5003335;28;20191;-73
2021/08/18 09:32:19;;;;;;;6.18;3.47;;;;;;;;;;5000303;28;20794;-72
2021/08/18 09:34:56;;;;;;;3.35;2.65;;;;;;;;;;5001405;28;20214;-74
2021/08/18 09:37:23;;;;;;;6.50;3.28;;;;;;;;;;5008888;28;20542;-72
2021/08/18 09:39:49;;;;;;;10.35;3.38;;;;;;;;;;5006699;28;20254;-75
2021/08/18 09:42:31;;;;;;;7.10;3.38;;;;;;;;;;5010256;28;20207;-72
2021/08/18 09:45:15;;;;;;;8.00;3.50;;;;;;;;;;5000962;28;20178;-71
2021/08/18 09:47:54;;;;;;;6.82;3.55;;;;;;;;;;5007780;28;20832;-75
2021/08/18 09:50:23;;;;;;;11.23;4.38;;;;;;;;;;5009006;28;20194;-75
2021/08/18 09:52:50;;;;;;;7.30;3.97;;;;;;;;;;5010155;28;20195;-71
2021/08/18 09:55:21;;;;;;;8.50;3.65;;;;;;;;;;5006143;28;20280;-70
2021/08/18 09:57:46;;;;;;;7.63;3.53;;;;;;;;;;5008237;28;20261;-72
2021/08/18 10:00:12;;;;;;;8.70;3.80;;;;;;;;;;5002950;28;20210;-73
2021/08/18 10:02:38;;;;;;;6.00;3.92;;;;;;;;;;5009640;28;20191;-71
2021/08/18 10:05:04;;;;;;;6.63;3.83;;;;;;;;;;5007829;28;20293;-71
2021/08/18 10:07:30;;;;;;;4.85;3.60;;;;;;;;;;5009641;28;20650;-71
2021/08/18 10:09:55;;;;;;;5.03;3.53;;;;;;;;;;5017428;28;20729;-72
2021/08/18 10:12:20;;;;;;;7.05;3.63;;;;;;;;;;5001707;28;20323;-72
2021/08/18 10:14:46;;;;;;;5.75;3.33;;;;;;;;;;5017437;28;20202;-71
2021/08/18 10:17:12;;;;;;;6.53;3.28;;;;;;;;;;4999527;28;20273;-71
2021/08/18 10:19:39;;;;;;;3.80;2.55;;;;;;;;;;5014765;28;20269;-71
2021/08/18 10:22:04;;;;;;;5.47;2.90;;;;;;;;;;4999596;28;20230;-72
2021/08/18 10:24:34;;;;;;;7.30;3.60;;;;;;;;;;5012330;28;20844;-72
2021/08/18 10:27:00;;;;;;;5.38;2.83;;;;;;;;;;5002615;28;20183;-74
2021/08/18 10:29:33;;;;;;;5.50;3.45;;;;;;;;;;5011030;28;20252;-71
2021/08/18 10:32:05;;;;;;;5.60;2.65;;;;;;;;;;4996329;28;20241;-72
2021/08/18 10:34:40;;;;;;;4.20;2.78;;;;;;;;;;5003629;28;20630;-72
2021/08/18 10:37:13;;;;;;;3.55;2.88;;;;;;;;;;4996198;28;20198;-73
2021/08/18 10:39:40;;;;;;;3.78;2.50;;;;;;;;;;5004281;28;20209;-71
2021/08/18 10:42:12;;;;;;;7.70;3.00;;;;;;;;;;4996649;28;20194;-72
2021/08/18 10:44:50;;;;;;;3.95;2.97;;;;;;;;;;5011210;28;20189;-75
2021/08/18 10:47:25;;;;;;;4.60;2.90;;;;;;;;;;4996100;28;20179;-72
2021/08/18 10:50:23;;;;;;;5.10;3.00;;;;;;;;;;5002185;28;20721;-72
2021/08/18 10:52:50;;;;;;;4.72;2.80;;;;;;;;;;4999130;28;20187;-74
2021/08/18 10:55:24;;;;;;;6.28;3.05;;;;;;;;;;5005363;28;20247;-76
2021/08/18 10:57:54;;;;;;;6.65;2.72;;;;;;;;;;5004149;28;20174;-72
2021/08/18 11:00:42;;;;;;;5.78;2.85;;;;;;;;;;5004873;28;20197;-76
2021/08/18 11:03:13;;;;;;;4.35;2.70;;;;;;;;;;4996444;28;20193;-74
2021/08/18 11:05:38;;;;;;;3.33;2.70;;;;;;;;;;5007290;28;20237;-72
2021/08/18 11:08:14;;;;;;;4.03;2.75;;;;;;;;;;5008759;28;20635;-71
2021/08/18 11:11:09;;;;;;;4.47;3.03;;;;;;;;;;5008826;28;20197;-75
2021/08/18 11:13:41;;;;;;;6.43;2.67;;;;;;;;;;4999228;28;20183;-72
2021/08/18 11:16:34;;;;;;;3.85;2.83;;;;;;;;;;5008808;28;20222;-72
2021/08/18 11:19:02;;;;;;;3.85;3.05;;;;;;;;;;4997496;28;20507;-74
2021/08/18 11:21:30;;;;;;;3.65;2.90;;;;;;;;;;5008282;28;20182;-74
2021/08/18 11:24:00;;;;;;;7.10;3.15;;;;;;;;;;5001807;28;20630;-72
2021/08/18 11:26:32;;;;;;;5.50;2.75;;;;;;;;;;5006092;28;20519;-72
2021/08/18 11:29:02;;;;;;;6.10;3.13;;;;;;;;;;5005176;28;20198;-72
2021/08/18 11:31:33;;;;;;;4.20;3.10;;;;;;;;;;5000234;28;20657;-72
2021/08/18 11:33:59;;;;;;;4.50;3.05;;;;;;;;;;5003560;28;20217;-73
2021/08/18 11:36:25;;;;;;;3.33;2.95;;;;;;;;;;5001506;28;20218;-72
2021/08/18 11:38:58;;;;;;;4.25;2.90;;;;;;;;;;5008740;28;20642;-72
2021/08/18 11:41:37;;;;;;;4.53;3.10;;;;;;;;;;4999533;28;20214;-72
2021/08/18 11:44:03;;;;;;;3.28;2.97;;;;;;;;;;5003900;28;20277;-72
2021/08/18 11:46:30;;;;;;;9.35;3.25;;;;;;;;;;5001948;28;20257;-72
2021/08/18 11:49:07;;;;;;;32.00;6.70;;;;;;;;;;5005023;28;20214;-74
2021/08/18 11:51:33;;;;;;;13.45;4.88;;;;;;;;;;5005603;28;20227;-73
2021/08/18 11:53:59;;;;;;;5.95;3.15;;;;;;;;;;5013059;28;20804;-72
2021/08/18 11:56:27;;;;;;;3.30;3.00;;;;;;;;;;5004733;28;20633;-72
2021/08/18 11:59:01;;;;;;;2.90;2.38;;;;;;;;;;5009544;28;20681;-72
2021/08/18 12:01:27;;;;;;;3.13;2.38;;;;;;;;;;5004239;28;20202;-74
2021/08/18 12:03:53;;;;;;;3.28;2.10;;;;;;;;;;5009512;28;20186;-72
2021/08/18 12:06:35;;;;;;;6.78;2.15;;;;;;;;;;5000591;28;20198;-72
2021/08/18 12:09:04;;;;;;;3.33;2.28;;;;;;;;;;5009019;28;20209;-74
2021/08/18 12:11:32;;;;;;;3.53;2.47;;;;;;;;;;5001010;28;20198;-73
2021/08/18 12:14:07;;;;;;;3.60;2.75;;;;;;;;;;5006172;28;20202;-74
2021/08/18 12:16:33;;;;;;;3.55;2.35;;;;;;;;;;5005186;28;20207;-72
2021/08/18 12:19:17;;;;;;;5.18;2.80;;;;;;;;;;5004863;28;20244;-73
2021/08/18 12:21:43;;;;;;;4.38;3.00;;;;;;;;;;5007851;28;20631;-72
2021/08/18 12:24:11;;;;;;;5.03;3.17;;;;;;;;;;5003356;28;20605;-72
2021/08/18 12:26:41;;;;;;;3.13;2.70;;;;;;;;;;5025405;28;20551;-74
2021/08/18 12:29:09;;;;;;;3.72;3.08;;;;;;;;;;4997202;28;20625;-73
2021/08/18 12:31:54;;;;;;;6.53;3.17;;;;;;;;;;5004972;28;20634;-72
2021/08/18 12:34:39;;;;;;;10.07;3.50;;;;;;;;;;5004503;28;20658;-73
2021/08/18 12:37:13;;;;;;;4.25;3.25;;;;;;;;;;5004808;28;20194;-72
2021/08/18 12:39:41;;;;;;;5.15;3.17;;;;;;;;;;5008208;28;20194;-72
2021/08/18 12:42:08;;;;;;;4.65;4.13;;;;;;;;;;5008884;28;20301;-75
2021/08/18 12:44:37;;;;;;;4.78;4.22;;;;;;;;;;5000162;28;20270;-72
2021/08/18 12:47:12;;;;;;;4.63;4.22;;;;;;;;;;5003966;28;20578;-75
2021/08/18 12:49:45;;;;;;;4.53;3.90;;;;;;;;;;5000570;28;20194;-74
2021/08/18 12:52:10;;;;;;;5.38;4.28;;;;;;;;;;4999485;28;20174;-72
2021/08/18 12:54:36;;;;;;;6.47;4.90;;;;;;;;;;5003422;28;20229;-78
2021/08/18 12:57:06;;;;;;;7.20;4.80;;;;;;;;;;5004726;28;20228;-73
2021/08/18 12:59:35;;;;;;;6.35;5.75;;;;;;;;;;4998027;28;20210;-74
2021/08/18 13:02:01;;;;;;;8.00;6.18;;;;;;;;;;5003979;28;20512;-72
2021/08/18 13:04:27;;;;;;;6.70;6.10;;;;;;;;;;4997462;28;20205;-72
2021/08/18 13:06:52;;;;;;;6.50;5.90;;;;;;;;;;5004601;28;20280;-75
2021/08/18 13:09:17;;;;;;;5.97;5.47;;;;;;;;;;4999172;28;20183;-72
2021/08/18 13:11:45;;;;;;;6.15;5.50;;;;;;;;;;5008516;28;20196;-75
2021/08/18 13:14:11;;;;;;;5.55;5.05;;;;;;;;;;5017413;28;20190;-75
2021/08/18 13:16:36;;;;;;;6.25;5.75;;;;;;;;;;5001337;28;20195;-72
2021/08/18 13:19:01;;;;;;;6.50;5.82;;;;;;;;;;5012273;28;20198;-76
2021/08/18 13:21:27;;;;;;;6.03;5.43;;;;;;;;;;4994476;28;20604;-76
2021/08/18 13:23:52;;;;;;;9.70;5.85;;;;;;;;;;5006932;28;20711;-74
2021/08/18 13:26:17;;;;;;;9.30;6.15;;;;;;;;;;4997476;28;20183;-73
2021/08/18 13:28:43;;;;;;;7.30;6.30;;;;;;;;;;5003247;28;20207;-73
2021/08/18 13:31:08;;;;;;;6.55;5.90;;;;;;;;;;5002224;28;20182;-72
2021/08/18 13:33:34;;;;;;;6.75;5.90;;;;;;;;;;5011371;28;20852;-73
2021/08/18 13:36:00;;;;;;;7.68;5.90;;;;;;;;;;5004292;28;20553;-73
2021/08/18 13:38:25;;;;;;;7.90;6.00;;;;;;;;;;5009929;28;20187;-73
2021/08/18 13:40:51;;;;;;;6.70;6.10;;;;;;;;;;4999876;28;20633;-72
2021/08/18 13:43:16;;;;;;;7.40;5.70;;;;;;;;;;5010018;28;20746;-73
2021/08/18 13:45:41;;;;;;;7.95;6.13;;;;;;;;;;5012637;28;20732;-72
2021/08/18 13:48:07;;;;;;;6.95;6.35;;;;;;;;;;5004468;28;20672;-73
2021/08/18 13:50:32;;;;;;;13.10;6.78;;;;;;;;;;5011414;28;20288;-77
2021/08/18 13:52:57;;;;;;;6.95;6.18;;;;;;;;;;4991088;28;20211;-73
2021/08/18 13:55:23;;;;;;;7.72;6.72;;;;;;;;;;5009605;28;20241;-76
2021/08/18 13:57:49;;;;;;;8.50;7.03;;;;;;;;;;5002511;28;20631;-74
2021/08/18 14:00:15;;;;;;;9.35;7.22;;;;;;;;;;5004180;28;20206;-73
2021/08/18 14:02:40;;;;;;;9.68;7.45;;;;;;;;;;4998166;28;20190;-73
2021/08/18 14:05:06;;;;;;;9.75;7.88;;;;;;;;;;5007595;28;20174;-73
2021/08/18 14:07:31;;;;;;;12.18;7.32;;;;;;;;;;5000209;28;20524;-72
2021/08/18 14:09:57;;;;;;;11.45;7.22;;;;;;;;;;5009493;28;20258;-73
2021/08/18 14:12:22;;;;;;;9.00;8.07;;;;;;;;;;5003617;28;20206;-73
2021/08/18 14:14:48;;;;;;;8.77;7.25;;;;;;;;;;5000292;28;20526;-75
2021/08/18 14:17:13;;;;;;;8.98;7.47;;;;;;;;;;5007968;28;20195;-75
2021/08/18 14:19:39;;;;;;;9.07;7.78;;;;;;;;;;4999815;28;20186;-73
2021/08/18 14:22:04;;;;;;;10.13;8.60;;;;;;;;;;5005314;28;20186;-75
2021/08/18 14:24:30;;;;;;;8.65;7.85;;;;;;;;;;4999759;28;20197;-72
2021/08/18 14:26:55;;;;;;;9.43;7.55;;;;;;;;;;5013639;28;20178;-73
2021/08/18 14:29:21;;;;;;;9.68;7.65;;;;;;;;;;5001700;28;20215;-73
2021/08/18 14:31:47;;;;;;;10.00;7.25;;;;;;;;;;5008731;28;20564;-72
2021/08/18 14:34:12;;;;;;;7.90;7.10;;;;;;;;;;4996141;28;20241;-71